sensor_id;sensor_type;location;lat;lon;timestamp;P1;durP1;ratioP1;P2;durP2;ratioP2
7753;SDS011;3921;42.266;23.122;2022-08-24T00:02:35;9.27;;;6.97;;
7753;SDS011;3921;42.266;23.122;2022-08-24T00:28:02;10.43;;;8.17;;
7753;SDS011;3921;42.266;23.122;2022-08-24T00:30:30;11.00;;;8.03;;
7753;SDS011;3921;42.266;23.122;2022-08-24T00:35:33;11.00;;;7.80;;
7753;SDS011;3921;42.266;23.122;2022-08-24T00:38:05;9.57;;;7.53;;
7753;SDS011;3921;42.266;23.122;2022-08-24T00:51:10;11.03;;;6.70;;
7753;SDS011;3921;42.266;23.122;2022-08-24T00:53:43;10.17;;;6.87;;
7753;SDS011;3921;42.266;23.122;2022-08-24T00:56:16;12.27;;;6.60;;
7753;SDS011;3921;42.266;23.122;2022-08-24T00:58:49;7.53;;;6.30;;
7753;SDS011;3921;42.266;23.122;2022-08-24T01:01:19;11.17;;;7.13;;
7753;SDS011;3921;42.266;23.122;2022-08-24T01:03:47;10.93;;;7.20;;
7753;SDS011;3921;42.266;23.122;2022-08-24T01:11:29;11.17;;;7.47;;
7753;SDS011;3921;42.266;23.122;2022-08-24T01:14:32;13.13;;;8.73;;
7753;SDS011;3921;42.266;23.122;2022-08-24T01:17:22;13.83;;;9.20;;
7753;SDS011;3921;42.266;23.122;2022-08-24T01:37:04;12.37;;;8.67;;
7753;SDS011;3921;42.266;23.122;2022-08-24T01:39:36;9.83;;;8.10;;
7753;SDS011;3921;42.266;23.122;2022-08-24T01:42:05;8.77;;;7.53;;
7753;SDS011;3921;42.266;23.122;2022-08-24T01:44:37;10.43;;;8.57;;
7753;SDS011;3921;42.266;23.122;2022-08-24T01:47:10;8.80;;;7.90;;
7753;SDS011;3921;42.266;23.122;2022-08-24T01:49:41;14.13;;;7.83;;
7753;SDS011;3921;42.266;23.122;2022-08-24T01:52:12;9.07;;;7.33;;
7753;SDS011;3921;42.266;23.122;2022-08-24T01:54:47;8.80;;;6.93;;
7753;SDS011;3921;42.266;23.122;2022-08-24T01:57:15;12.70;;;7.00;;
7753;SDS011;3921;42.266;23.122;2022-08-24T01:59:45;9.47;;;7.70;;
7753;SDS011;3921;42.266;23.122;2022-08-24T02:02:20;11.63;;;7.43;;
7753;SDS011;3921;42.266;23.122;2022-08-24T02:04:53;11.10;;;7.33;;
7753;SDS011;3921;42.266;23.122;2022-08-24T02:07:25;9.73;;;6.90;;
7753;SDS011;3921;42.266;23.122;2022-08-24T02:10:00;9.57;;;7.43;;
7753;SDS011;3921;42.266;23.122;2022-08-24T02:12:32;9.93;;;7.37;;
7753;SDS011;3921;42.266;23.122;2022-08-24T02:15:07;10.40;;;7.83;;
7753;SDS011;3921;42.266;23.122;2022-08-24T02:17:41;11.13;;;7.30;;
7753;SDS011;3921;42.266;23.122;2022-08-24T02:20:08;10.13;;;6.80;;
7753;SDS011;3921;42.266;23.122;2022-08-24T02:22:52;8.13;;;6.67;;
7753;SDS011;3921;42.266;23.122;2022-08-24T02:25:23;11.00;;;6.87;;
7753;SDS011;3921;42.266;23.122;2022-08-24T02:27:54;11.63;;;7.53;;
7753;SDS011;3921;42.266;23.122;2022-08-24T02:30:30;10.70;;;6.80;;
7753;SDS011;3921;42.266;23.122;2022-08-24T02:33:11;11.43;;;7.37;;
7753;SDS011;3921;42.266;23.122;2022-08-24T02:35:45;9.47;;;7.07;;
7753;SDS011;3921;42.266;23.122;2022-08-24T02:38:29;8.97;;;7.33;;
7753;SDS011;3921;42.266;23.122;2022-08-24T02:41:17;8.43;;;7.53;;
7753;SDS011;3921;42.266;23.122;2022-08-24T02:44:15;8.87;;;6.93;;
7753;SDS011;3921;42.266;23.122;2022-08-24T02:46:53;9.73;;;7.00;;
7753;SDS011;3921;42.266;23.122;2022-08-24T02:49:41;12.20;;;7.03;;
7753;SDS011;3921;42.266;23.122;2022-08-24T02:52:17;13.00;;;7.77;;
7753;SDS011;3921;42.266;23.122;2022-08-24T02:54:52;11.47;;;6.90;;
7753;SDS011;3921;42.266;23.122;2022-08-24T03:17:30;9.70;;;7.90;;
7753;SDS011;3921;42.266;23.122;2022-08-24T03:20:36;17.63;;;8.10;;
7753;SDS011;3921;42.266;23.122;2022-08-24T04:37:55;12.00;;;9.60;;
7753;SDS011;3921;42.266;23.122;2022-08-24T04:40:49;12.67;;;9.47;;
7753;SDS011;3921;42.266;23.122;2022-08-24T04:43:34;18.13;;;10.57;;
7753;SDS011;3921;42.266;23.122;2022-08-24T04:46:05;11.90;;;9.40;;
7753;SDS011;3921;42.266;23.122;2022-08-24T04:48:46;15.90;;;9.87;;
7753;SDS011;3921;42.266;23.122;2022-08-24T04:51:16;13.83;;;9.50;;
7753;SDS011;3921;42.266;23.122;2022-08-24T04:53:46;19.93;;;10.53;;
7753;SDS011;3921;42.266;23.122;2022-08-24T04:56:24;19.23;;;10.67;;
7753;SDS011;3921;42.266;23.122;2022-08-24T17:49:04;15.37;;;7.20;;
